createdAt,value
2017-09-27T00:02:31.306Z,26.80
2017-09-27T00:07:34.543Z,24.27
2017-09-27T00:12:37.735Z,28.07
2017-09-27T00:17:40.921Z,27.43
2017-09-27T00:22:44.117Z,29.17
2017-09-27T00:27:47.305Z,25.20
2017-09-27T00:32:50.521Z,26.33
2017-09-27T00:37:53.765Z,29.00
2017-09-27T00:42:57.028Z,31.50
2017-09-27T00:48:00.980Z,33.30
2017-09-27T00:53:04.168Z,28.60
2017-09-27T00:58:07.346Z,30.00
2017-09-27T01:03:11.446Z,31.70
2017-09-27T01:08:14.649Z,30.57
2017-09-27T01:13:17.983Z,27.40
2017-09-27T01:18:21.168Z,31.60
2017-09-27T01:23:24.369Z,37.23
2017-09-27T01:28:27.587Z,28.87
2017-09-27T01:33:30.854Z,32.23
2017-09-27T01:38:34.034Z,36.50
2017-09-27T01:43:38.064Z,32.67
2017-09-27T01:48:42.009Z,32.40
2017-09-27T01:53:45.165Z,35.30
2017-09-27T01:58:48.332Z,30.97
2017-09-27T02:03:51.537Z,33.77
2017-09-27T02:08:54.720Z,31.90
2017-09-27T02:13:58.883Z,33.80
2017-09-27T02:19:02.174Z,36.20
2017-09-27T02:24:05.510Z,41.63
2017-09-27T02:29:08.721Z,34.63
2017-09-27T02:34:11.933Z,39.67
2017-09-27T02:39:15.187Z,44.03
2017-09-27T02:44:18.412Z,40.73
2017-09-27T02:49:21.611Z,37.30
2017-09-27T02:54:24.829Z,33.23
2017-09-27T02:59:28.008Z,33.93
2017-09-27T03:04:31.209Z,35.67
2017-09-27T03:09:34.400Z,38.90
2017-09-27T03:14:38.350Z,39.40
2017-09-27T03:19:41.539Z,37.93
2017-09-27T03:24:45.516Z,34.70
2017-09-27T03:29:48.843Z,43.67
2017-09-27T03:34:52.156Z,39.17
2017-09-27T03:39:55.364Z,41.03
2017-09-27T03:44:58.597Z,42.47
2017-09-27T03:50:02.554Z,39.93
2017-09-27T03:55:05.771Z,36.70
2017-09-27T04:00:08.952Z,38.83
2017-09-27T04:05:12.135Z,40.27
2017-09-27T04:10:16.165Z,36.27
2017-09-27T04:15:20.101Z,40.07
2017-09-27T04:20:23.292Z,36.77
2017-09-27T04:25:27.262Z,46.43
2017-09-27T04:30:30.497Z,42.60
2017-09-27T04:35:33.732Z,46.83
2017-09-27T04:40:37.003Z,38.03
2017-09-27T04:45:40.224Z,51.40
2017-09-27T04:50:43.408Z,44.10
2017-09-27T04:55:46.604Z,42.27
2017-09-27T05:00:49.786Z,42.87
2017-09-27T05:05:52.999Z,40.42
2017-09-27T05:10:56.183Z,45.70
2017-09-27T05:15:59.393Z,44.13
2017-09-27T05:21:02.689Z,43.27
2017-09-27T05:26:06.666Z,40.70
2017-09-27T05:31:09.850Z,42.67
2017-09-27T05:36:13.126Z,44.67
2017-09-27T05:41:17.065Z,41.20
2017-09-27T05:46:20.276Z,43.60
2017-09-27T05:51:23.508Z,47.20
2017-09-27T05:56:26.687Z,41.60
2017-09-27T06:01:29.873Z,43.53
2017-09-27T06:06:33.824Z,40.13
2017-09-27T06:11:37.027Z,49.93
2017-09-27T06:16:40.288Z,46.22
2017-09-27T06:21:43.489Z,47.30
2017-09-27T06:26:46.750Z,50.67
2017-09-27T06:31:49.940Z,48.83
2017-09-27T06:36:53.130Z,45.67
2017-09-27T06:41:57.110Z,41.93
2017-09-27T06:47:00.309Z,45.33
2017-09-27T06:52:03.508Z,47.83
2017-09-27T06:57:06.721Z,41.70
2017-09-27T07:02:09.958Z,43.57
2017-09-27T07:07:13.167Z,50.17
2017-09-27T07:12:16.350Z,38.50
2017-09-27T07:17:19.551Z,44.33
2017-09-27T07:22:22.968Z,33.93
2017-09-27T07:27:26.187Z,37.10
2017-09-27T07:32:29.400Z,38.60
2017-09-27T07:37:32.678Z,40.93
2017-09-27T07:42:35.906Z,44.23
2017-09-27T07:47:39.234Z,37.00
2017-09-27T07:52:43.224Z,42.03
2017-09-27T07:57:46.413Z,43.80
2017-09-27T08:02:49.699Z,44.70
2017-09-27T08:07:53.756Z,39.60
2017-09-27T08:12:56.944Z,42.87
2017-09-27T08:18:00.138Z,39.20
2017-09-27T08:23:04.110Z,44.37
2017-09-27T08:28:07.300Z,38.83
2017-09-27T08:33:10.497Z,40.40
2017-09-27T08:38:13.677Z,35.73
2017-09-27T08:43:16.881Z,38.20
2017-09-27T08:48:20.838Z,41.53
2017-09-27T08:53:24.029Z,34.67
2017-09-27T08:58:27.236Z,33.53
2017-09-27T09:03:30.438Z,39.13
2017-09-27T09:08:33.623Z,31.83
2017-09-27T09:13:37.581Z,31.47
2017-09-27T09:18:40.775Z,39.07
2017-09-27T09:23:43.942Z,35.10
2017-09-27T09:28:47.153Z,34.47
2017-09-27T09:33:50.349Z,37.83
2017-09-27T09:38:53.543Z,32.30
2017-09-27T09:43:56.729Z,41.23
2017-09-27T09:48:59.947Z,39.77
2017-09-27T09:54:03.162Z,45.27
2017-09-27T09:59:06.362Z,44.53
2017-09-27T10:04:09.742Z,38.83
2017-09-27T10:09:12.928Z,40.40
2017-09-27T10:14:16.905Z,39.80
2017-09-27T10:19:20.205Z,34.83
2017-09-27T10:24:23.454Z,46.07
2017-09-27T10:29:26.645Z,34.73
2017-09-27T10:34:29.865Z,43.20
2017-09-27T10:39:33.099Z,42.00
2017-09-27T10:44:37.062Z,43.83
2017-09-27T10:49:40.235Z,44.40
2017-09-27T10:54:43.533Z,42.83
2017-09-27T10:59:46.729Z,47.27
2017-09-27T11:04:50.696Z,36.87
2017-09-27T11:09:53.917Z,31.47
2017-09-27T11:14:57.112Z,47.53
2017-09-27T11:20:00.327Z,40.13
2017-09-27T11:25:03.586Z,36.10
2017-09-27T11:30:07.530Z,46.80
2017-09-27T11:35:11.888Z,43.73
2017-09-27T11:40:15.086Z,36.30
2017-09-27T11:45:18.374Z,39.73
2017-09-27T11:50:21.561Z,41.13
2017-09-27T11:55:25.550Z,38.97
2017-09-27T12:00:28.725Z,40.17
2017-09-27T12:05:32.158Z,39.50
2017-09-27T12:10:35.406Z,36.60
2017-09-27T12:15:41.007Z,33.58
2017-09-27T12:20:44.320Z,38.10
2017-09-27T12:25:47.845Z,34.87
2017-09-27T12:30:51.151Z,31.50
2017-09-27T12:35:54.370Z,36.50
2017-09-27T12:40:57.568Z,35.37
2017-09-27T12:46:00.772Z,35.47
2017-09-27T12:51:03.957Z,33.57
2017-09-27T12:56:07.157Z,31.80
2017-09-27T13:01:10.353Z,36.43
2017-09-27T13:06:14.330Z,37.77
2017-09-27T13:11:17.529Z,34.67
2017-09-27T13:16:20.712Z,32.60
2017-09-27T13:21:23.899Z,37.23
2017-09-27T13:26:27.257Z,36.60
2017-09-27T13:31:30.471Z,34.33
2017-09-27T13:36:33.664Z,36.33
2017-09-27T13:41:36.854Z,36.50
2017-09-27T13:46:40.045Z,37.37
2017-09-27T13:51:43.241Z,32.00
2017-09-27T13:56:46.435Z,44.53
2017-09-27T14:01:50.378Z,36.80
2017-09-27T14:06:53.596Z,33.57
2017-09-27T14:11:56.762Z,37.23
2017-09-27T14:16:59.944Z,39.40
2017-09-27T14:22:03.268Z,39.00
2017-09-27T14:27:06.485Z,33.50
2017-09-27T14:32:10.466Z,32.23
2017-09-27T14:37:13.718Z,40.47
2017-09-27T14:42:17.014Z,31.00
2017-09-27T14:47:20.213Z,29.00
2017-09-27T14:52:23.508Z,28.77
2017-09-27T14:57:26.818Z,39.23
2017-09-27T15:02:30.037Z,33.37
2017-09-27T15:07:33.256Z,36.53
2017-09-27T15:12:36.465Z,34.53
2017-09-27T15:17:39.738Z,33.83
2017-09-27T15:22:42.943Z,33.97
2017-09-27T15:27:46.163Z,32.50
2017-09-27T15:32:49.352Z,30.17
2017-09-27T15:37:52.542Z,29.10
2017-09-27T15:42:56.356Z,35.73
2017-09-27T15:47:59.610Z,34.00
2017-09-27T15:53:02.805Z,33.37
2017-09-27T15:58:06.009Z,29.70
2017-09-27T16:03:09.227Z,29.58
2017-09-27T16:08:12.445Z,32.43
2017-09-27T16:13:15.940Z,30.93
2017-09-27T16:18:19.158Z,32.23
2017-09-27T16:23:22.387Z,32.65
2017-09-27T16:28:26.408Z,28.63
2017-09-27T16:33:29.808Z,27.17
2017-09-27T16:38:33.021Z,27.40
2017-09-27T16:43:36.332Z,31.43
2017-09-27T16:48:39.674Z,29.23
2017-09-27T16:53:43.641Z,32.70
2017-09-27T16:58:46.881Z,28.23
2017-09-27T17:03:50.882Z,31.03
2017-09-27T17:08:54.086Z,28.83
2017-09-27T17:13:57.292Z,38.30
2017-09-27T17:19:00.856Z,29.33
2017-09-27T17:24:04.833Z,30.27
2017-09-27T17:29:08.864Z,40.37
2017-09-27T17:34:12.053Z,41.07
2017-09-27T17:39:15.263Z,29.60
2017-09-27T17:44:18.473Z,26.53
2017-09-27T17:49:21.689Z,29.60
2017-09-27T17:54:24.874Z,42.27
2017-09-27T17:59:28.129Z,48.97
2017-09-27T18:04:36.851Z,51.90
2017-09-27T18:09:45.529Z,48.70
2017-09-27T18:30:47.260Z,36.97
2017-09-27T18:35:50.461Z,38.90
2017-09-27T18:40:53.672Z,38.73
2017-09-27T18:45:56.834Z,36.90
2017-09-27T18:51:01.458Z,43.93
2017-09-27T18:56:04.808Z,39.80
2017-09-27T19:01:12.057Z,47.23
2017-09-27T19:06:16.012Z,39.60
2017-09-27T19:11:19.191Z,41.77
2017-09-27T19:16:22.595Z,41.00
2017-09-27T19:21:28.228Z,36.40
2017-09-27T19:26:31.442Z,36.77
2017-09-27T19:31:35.773Z,37.30
2017-09-27T19:36:39.013Z,32.40
2017-09-27T19:41:43.045Z,31.87
2017-09-27T19:46:46.250Z,32.87
2017-09-27T19:51:49.471Z,35.83
2017-09-27T19:56:52.794Z,40.43
2017-09-27T20:01:56.001Z,41.00
2017-09-27T20:06:59.203Z,43.10
2017-09-27T20:12:02.453Z,39.83
2017-09-27T20:17:05.673Z,39.83
2017-09-27T20:22:08.830Z,36.30
2017-09-27T20:27:12.050Z,38.63
2017-09-27T20:32:15.251Z,41.80
2017-09-27T20:37:18.462Z,40.90
2017-09-27T20:42:21.691Z,36.60
2017-09-27T20:47:24.868Z,37.63
2017-09-27T20:52:28.229Z,39.20
2017-09-27T20:57:32.175Z,37.20
2017-09-27T21:02:38.079Z,49.77
2017-09-27T21:07:41.251Z,42.20
2017-09-27T21:12:44.467Z,44.97
2017-09-27T21:17:47.673Z,42.33
2017-09-27T21:22:50.899Z,41.57
2017-09-27T21:27:54.090Z,44.93
2017-09-27T21:32:57.286Z,38.88
2017-09-27T21:38:00.479Z,40.23
2017-09-27T21:43:03.671Z,35.57
2017-09-27T21:48:06.863Z,42.77
2017-09-27T21:53:10.854Z,45.83
2017-09-27T21:58:14.953Z,41.00
2017-09-27T22:03:18.156Z,42.20
2017-09-27T22:08:21.362Z,45.67
2017-09-27T22:13:24.542Z,42.13
2017-09-27T22:18:28.509Z,45.03
2017-09-27T22:23:31.709Z,43.27
2017-09-27T22:28:34.880Z,42.07
2017-09-27T22:33:38.089Z,43.57
2017-09-27T22:38:41.281Z,46.43
2017-09-27T22:43:45.248Z,39.07
2017-09-27T22:48:48.468Z,47.30
2017-09-27T22:53:51.623Z,44.80
2017-09-27T22:58:55.600Z,47.53
2017-09-27T23:03:58.816Z,46.60
2017-09-27T23:09:02.013Z,43.43
2017-09-27T23:14:05.198Z,50.65
2017-09-27T23:19:08.383Z,48.73
2017-09-27T23:24:11.575Z,48.83
2017-09-27T23:29:15.543Z,45.07
2017-09-27T23:34:18.742Z,51.50
2017-09-27T23:39:21.944Z,54.00
2017-09-27T23:44:25.163Z,44.93
2017-09-27T23:49:28.361Z,50.07
2017-09-27T23:54:31.541Z,56.00
2017-09-27T23:59:34.778Z,50.47
